createdAt,value
2023-01-18T00:01:19.097Z,4.27
2023-01-18T00:03:48.684Z,5.33
2023-01-18T00:06:17.895Z,4.10
2023-01-18T00:08:46.515Z,3.90
2023-01-18T00:11:17.070Z,4.23
2023-01-18T00:13:45.723Z,4.10
2023-01-18T00:16:16.142Z,3.53
2023-01-18T00:18:44.621Z,4.00
2023-01-18T00:21:14.107Z,3.30
2023-01-18T00:23:42.244Z,4.27
2023-01-18T00:26:11.987Z,4.57
2023-01-18T00:28:41.366Z,3.80
2023-01-18T00:31:11.946Z,4.40
2023-01-18T00:33:40.485Z,4.03
2023-01-18T00:36:08.827Z,4.80
2023-01-18T00:38:38.339Z,3.67
2023-01-18T00:41:06.495Z,3.43
2023-01-18T00:43:39.779Z,3.47
2023-01-18T00:46:09.472Z,3.67
2023-01-18T00:48:38.865Z,4.43
2023-01-18T00:51:08.105Z,4.87
2023-01-18T00:53:38.109Z,5.53
2023-01-18T00:56:07.825Z,3.67
2023-01-18T00:58:37.480Z,4.40
2023-01-18T01:01:07.387Z,3.90
2023-01-18T01:03:50.351Z,4.43
2023-01-18T01:06:40.087Z,4.17
2023-01-18T01:09:09.920Z,3.90
2023-01-18T01:11:38.241Z,4.10
2023-01-18T01:14:24.297Z,5.47
2023-01-18T01:17:10.271Z,4.37
2023-01-18T01:19:55.816Z,4.90
2023-01-18T01:22:41.398Z,4.23
2023-01-18T01:25:28.683Z,4.80
2023-01-18T01:27:56.812Z,3.40
2023-01-18T01:30:25.391Z,4.00
2023-01-18T01:32:54.016Z,4.30
2023-01-18T01:35:22.497Z,3.87
2023-01-18T01:37:50.630Z,3.93
2023-01-18T01:40:20.257Z,3.60
2023-01-18T01:42:48.795Z,2.67
2023-01-18T01:45:18.650Z,4.37
2023-01-18T01:47:48.784Z,3.83
2023-01-18T01:50:20.579Z,4.57
2023-01-18T01:52:49.453Z,4.50
2023-01-18T01:55:23.322Z,4.30
2023-01-18T01:57:55.206Z,4.30
2023-01-18T02:00:25.115Z,3.90
2023-01-18T02:02:57.144Z,4.20
2023-01-18T02:05:26.611Z,3.60
2023-01-18T02:07:55.294Z,4.60
2023-01-18T02:10:24.888Z,4.00
2023-01-18T02:12:54.764Z,3.83
2023-01-18T02:15:27.198Z,3.73
2023-01-18T02:18:19.160Z,3.57
2023-01-18T02:21:12.303Z,3.37
2023-01-18T02:24:18.223Z,3.57
2023-01-18T02:26:54.545Z,4.23
2023-01-18T02:29:44.086Z,3.80
2023-01-18T02:32:22.487Z,3.33
2023-01-18T02:34:53.198Z,3.30
2023-01-18T02:37:31.760Z,3.67
2023-01-18T02:40:11.789Z,2.67
2023-01-18T02:43:00.217Z,3.20
2023-01-18T02:45:51.992Z,5.00
2023-01-18T02:48:23.339Z,3.47
2023-01-18T02:50:52.250Z,3.30
2023-01-18T02:53:20.439Z,3.40
2023-01-18T02:55:52.956Z,3.80
2023-01-18T02:58:26.002Z,3.70
2023-01-18T03:01:01.002Z,4.20
2023-01-18T03:03:29.455Z,4.17
2023-01-18T03:06:01.726Z,3.67
2023-01-18T03:08:36.244Z,4.10
2023-01-18T03:11:09.013Z,4.17
2023-01-18T03:13:59.110Z,3.47
2023-01-18T03:16:39.901Z,4.43
2023-01-18T03:19:32.174Z,4.93
2023-01-18T03:22:03.746Z,4.60
2023-01-18T03:24:31.190Z,4.13
2023-01-18T03:27:17.202Z,4.77
2023-01-18T03:30:05.124Z,5.10
2023-01-18T03:32:53.688Z,4.57
2023-01-18T03:35:26.930Z,4.07
2023-01-18T03:37:57.306Z,3.53
2023-01-18T03:40:29.466Z,3.90
2023-01-18T03:43:04.542Z,5.17
2023-01-18T03:45:37.495Z,4.50
2023-01-18T03:48:09.521Z,4.27
2023-01-18T03:50:50.203Z,4.27
2023-01-18T03:53:26.403Z,3.87
2023-01-18T03:55:59.835Z,5.60
2023-01-18T03:58:34.045Z,4.13
2023-01-18T04:01:04.137Z,4.80
2023-01-18T04:03:34.892Z,5.47
2023-01-18T04:06:05.190Z,4.90
2023-01-18T04:08:33.388Z,4.70
2023-01-18T04:11:01.842Z,5.10
2023-01-18T04:13:29.967Z,5.80
2023-01-18T04:15:58.181Z,5.73
2023-01-18T04:18:26.710Z,5.07
2023-01-18T04:20:56.563Z,5.47
2023-01-18T04:23:24.854Z,6.67
2023-01-18T04:25:53.242Z,5.60
2023-01-18T04:28:26.140Z,6.97
2023-01-18T04:30:54.968Z,6.93
2023-01-18T04:33:26.652Z,6.00
2023-01-18T04:35:56.346Z,6.70
2023-01-18T04:38:24.570Z,7.13
2023-01-18T04:40:52.710Z,8.00
2023-01-18T04:43:20.896Z,7.73
2023-01-18T04:45:55.549Z,7.27
2023-01-18T04:48:24.856Z,7.40
2023-01-18T04:50:53.293Z,6.50
2023-01-18T04:53:23.077Z,7.00
2023-01-18T04:55:51.297Z,7.73
2023-01-18T04:58:19.517Z,7.20
2023-01-18T05:00:47.836Z,6.60
2023-01-18T05:03:16.187Z,7.47
2023-01-18T05:05:44.422Z,8.23
2023-01-18T05:08:12.615Z,7.80
2023-01-18T05:10:42.140Z,8.20
2023-01-18T05:13:10.600Z,8.73
2023-01-18T05:15:38.881Z,7.43
2023-01-18T05:18:07.226Z,7.40
2023-01-18T05:20:35.923Z,8.03
2023-01-18T05:23:11.125Z,7.63
2023-01-18T05:25:40.152Z,8.43
2023-01-18T05:28:10.315Z,9.40
2023-01-18T05:30:41.131Z,9.60
2023-01-18T05:33:10.150Z,8.83
2023-01-18T05:35:38.331Z,9.80
2023-01-18T05:38:06.549Z,9.83
2023-01-18T05:40:34.687Z,8.63
2023-01-18T05:43:02.904Z,8.87
2023-01-18T05:45:32.418Z,8.77
2023-01-18T05:48:00.766Z,11.10
2023-01-18T05:50:29.039Z,11.23
2023-01-18T05:52:58.491Z,11.77
2023-01-18T05:55:27.247Z,9.97
2023-01-18T05:57:55.542Z,11.90
2023-01-18T06:00:24.171Z,11.10
2023-01-18T06:02:55.052Z,11.23
2023-01-18T06:05:24.013Z,10.47
2023-01-18T06:07:52.728Z,10.07
2023-01-18T06:10:21.684Z,9.63
2023-01-18T06:12:50.028Z,10.27
2023-01-18T06:15:18.423Z,10.80
2023-01-18T06:17:47.303Z,9.50
2023-01-18T06:20:17.483Z,9.30
2023-01-18T06:22:46.752Z,9.70
2023-01-18T06:25:15.061Z,10.30
2023-01-18T06:27:43.237Z,10.70
2023-01-18T06:30:12.231Z,10.20
2023-01-18T06:32:40.473Z,9.37
2023-01-18T06:35:09.214Z,8.87
2023-01-18T06:37:38.793Z,10.50
2023-01-18T06:40:08.003Z,9.90
2023-01-18T06:42:36.171Z,8.93
2023-01-18T06:45:04.961Z,9.40
2023-01-18T06:47:33.153Z,10.17
2023-01-18T06:50:01.352Z,9.90
2023-01-18T06:52:29.481Z,10.67
2023-01-18T06:54:59.171Z,9.93
2023-01-18T06:57:27.450Z,12.23
2023-01-18T06:59:55.591Z,11.97
2023-01-18T07:02:23.772Z,10.40
2023-01-18T07:04:52.384Z,11.20
2023-01-18T07:07:20.543Z,11.23
2023-01-18T07:09:48.700Z,12.53
2023-01-18T07:12:18.326Z,11.87
2023-01-18T07:14:46.907Z,11.40
2023-01-18T07:17:15.095Z,12.83
2023-01-18T07:19:44.555Z,12.10
2023-01-18T07:22:13.888Z,10.80
2023-01-18T07:24:42.318Z,10.20
2023-01-18T07:27:10.593Z,10.67
2023-01-18T07:29:40.073Z,11.50
2023-01-18T07:32:08.281Z,11.90
2023-01-18T07:34:36.471Z,9.63
2023-01-18T07:37:04.601Z,10.57
2023-01-18T07:39:32.759Z,11.03
2023-01-18T07:42:00.881Z,10.70
2023-01-18T07:44:29.772Z,11.30
2023-01-18T07:46:59.452Z,10.07
2023-01-18T07:49:27.644Z,11.73
2023-01-18T07:51:55.791Z,10.83
2023-01-18T07:54:23.938Z,10.03
2023-01-18T07:56:53.174Z,10.10
2023-01-18T07:59:21.329Z,10.80
2023-01-18T08:01:49.654Z,10.40
2023-01-18T08:04:19.237Z,10.23
2023-01-18T08:06:47.403Z,9.90
2023-01-18T08:09:15.600Z,10.00
2023-01-18T08:11:43.947Z,10.23
2023-01-18T08:14:12.320Z,10.17
2023-01-18T08:16:40.479Z,11.40
2023-01-18T08:19:08.804Z,10.33
2023-01-18T08:21:38.302Z,10.50
2023-01-18T08:24:06.985Z,9.90
2023-01-18T08:26:35.496Z,10.80
2023-01-18T08:29:03.896Z,11.30
2023-01-18T08:31:32.122Z,11.27
2023-01-18T08:34:00.291Z,11.90
2023-01-18T08:36:28.534Z,9.23
2023-01-18T08:38:58.587Z,11.03
2023-01-18T08:41:29.301Z,11.70
2023-01-18T08:43:58.885Z,9.20
2023-01-18T08:46:27.470Z,8.37
2023-01-18T08:48:57.985Z,9.50
2023-01-18T08:51:26.809Z,9.37
2023-01-18T08:53:57.103Z,10.50
2023-01-18T08:56:27.824Z,9.93
2023-01-18T08:58:56.133Z,8.57
2023-01-18T09:01:24.476Z,7.30
2023-01-18T09:03:55.004Z,6.60
2023-01-18T09:06:23.348Z,7.97
2023-01-18T09:08:51.814Z,6.80
2023-01-18T09:11:20.347Z,8.63
2023-01-18T09:14:00.634Z,7.00
2023-01-18T09:16:30.220Z,9.03
2023-01-18T09:18:58.628Z,8.57
2023-01-18T09:21:28.976Z,8.23
2023-01-18T09:23:57.922Z,6.43
2023-01-18T09:26:27.768Z,7.17
2023-01-18T09:28:57.602Z,7.57
2023-01-18T09:31:28.004Z,7.53
2023-01-18T09:34:09.551Z,7.30
2023-01-18T09:36:45.871Z,8.00
2023-01-18T09:39:14.068Z,7.80
2023-01-18T09:41:44.725Z,7.73
2023-01-18T09:44:21.635Z,6.93
2023-01-18T09:46:54.630Z,6.70
2023-01-18T09:49:27.940Z,7.93
2023-01-18T09:52:08.513Z,7.60
2023-01-18T09:54:42.946Z,7.20
2023-01-18T09:57:24.379Z,7.67
2023-01-18T09:59:56.354Z,7.10
2023-01-18T10:02:32.380Z,7.60
2023-01-18T10:05:05.715Z,6.40
2023-01-18T10:07:38.173Z,6.30
2023-01-18T10:10:07.712Z,7.13
2023-01-18T10:12:41.724Z,5.30
2023-01-18T10:15:20.256Z,6.50
2023-01-18T10:17:50.438Z,6.50
2023-01-18T10:20:25.004Z,5.13
2023-01-18T10:22:58.844Z,5.40
2023-01-18T10:25:32.907Z,5.20
2023-01-18T10:28:26.115Z,5.47
2023-01-18T10:31:05.125Z,6.07
2023-01-18T10:33:38.220Z,5.87
2023-01-18T10:36:12.699Z,6.40
2023-01-18T10:38:41.781Z,5.67
2023-01-18T10:41:19.679Z,6.23
2023-01-18T10:43:48.139Z,5.13
2023-01-18T10:46:19.855Z,5.77
2023-01-18T10:48:50.297Z,6.53
2023-01-18T10:51:36.404Z,7.00
2023-01-18T10:54:23.306Z,6.77
2023-01-18T10:57:02.572Z,6.60
2023-01-18T10:59:37.550Z,5.90
2023-01-18T11:02:21.211Z,5.90
2023-01-18T11:04:56.831Z,6.80
2023-01-18T11:07:26.636Z,5.53
2023-01-18T11:09:59.344Z,6.27
2023-01-18T11:12:37.456Z,6.00
2023-01-18T11:15:27.538Z,7.23
2023-01-18T11:18:09.319Z,6.20
2023-01-18T11:20:46.214Z,7.00
2023-01-18T11:23:21.079Z,6.10
2023-01-18T11:26:01.768Z,7.03
2023-01-18T11:28:36.273Z,5.43
2023-01-18T11:31:12.183Z,6.50
2023-01-18T11:33:50.933Z,7.77
2023-01-18T11:36:20.795Z,6.57
2023-01-18T11:38:49.530Z,6.10
2023-01-18T11:41:20.661Z,6.00
2023-01-18T11:44:05.276Z,5.30
2023-01-18T11:46:41.093Z,5.90
2023-01-18T11:49:22.822Z,6.53
2023-01-18T11:51:55.792Z,6.40
2023-01-18T11:54:29.281Z,6.13
2023-01-18T11:57:02.265Z,6.53
2023-01-18T11:59:32.988Z,6.73
2023-01-18T12:02:30.740Z,5.70
2023-01-18T12:05:28.798Z,5.80
2023-01-18T12:08:10.655Z,5.87
2023-01-18T12:10:52.642Z,6.67
2023-01-18T12:13:35.744Z,6.27
2023-01-18T12:16:18.521Z,6.30
2023-01-18T12:19:21.890Z,6.67
2023-01-18T12:22:08.452Z,5.10
2023-01-18T12:24:55.172Z,5.43
2023-01-18T12:27:35.008Z,5.60
2023-01-18T12:30:34.077Z,6.23
2023-01-18T12:33:14.657Z,7.33
2023-01-18T12:35:56.247Z,5.90
2023-01-18T12:38:29.953Z,6.73
2023-01-18T12:41:36.058Z,6.47
2023-01-18T12:44:25.616Z,6.60
2023-01-18T12:47:05.248Z,7.27
2023-01-18T12:49:38.095Z,7.03
2023-01-18T12:52:18.689Z,6.60
2023-01-18T12:54:51.927Z,8.10
2023-01-18T12:57:22.009Z,7.53
2023-01-18T12:59:55.878Z,7.87
2023-01-18T13:02:33.202Z,7.27
2023-01-18T13:05:06.671Z,7.97
2023-01-18T13:07:40.282Z,6.87
2023-01-18T13:10:19.929Z,7.77
2023-01-18T13:12:50.352Z,8.50
2023-01-18T13:15:27.299Z,7.77
2023-01-18T13:18:02.707Z,8.57
2023-01-18T13:20:41.972Z,8.60
2023-01-18T13:23:23.669Z,8.90
2023-01-18T13:26:06.494Z,7.43
2023-01-18T13:28:34.918Z,7.63
2023-01-18T13:31:06.289Z,8.80
2023-01-18T13:33:37.966Z,8.80
2023-01-18T13:36:09.782Z,8.00
2023-01-18T13:38:41.863Z,9.00
2023-01-18T13:41:13.581Z,7.63
2023-01-18T13:44:03.677Z,7.47
2023-01-18T13:46:35.281Z,7.70
2023-01-18T13:49:38.004Z,7.33
2023-01-18T13:52:32.343Z,5.93
2023-01-18T13:55:25.943Z,7.70
2023-01-18T13:57:58.237Z,6.93
2023-01-18T14:00:27.347Z,7.83
2023-01-18T14:03:04.675Z,7.80
2023-01-18T14:05:38.117Z,6.13
2023-01-18T14:08:07.124Z,7.03
2023-01-18T14:10:38.482Z,6.60
2023-01-18T14:13:09.414Z,7.57
2023-01-18T14:15:50.971Z,6.90
2023-01-18T14:18:23.280Z,7.03
2023-01-18T14:21:03.674Z,7.00
2023-01-18T14:24:10.384Z,6.37
2023-01-18T14:26:41.943Z,6.33
2023-01-18T14:29:17.362Z,6.17
2023-01-18T14:31:49.733Z,6.23
2023-01-18T14:34:30.338Z,7.13
2023-01-18T14:36:58.956Z,6.00
2023-01-18T14:39:30.055Z,6.43
2023-01-18T14:42:00.821Z,6.70
2023-01-18T14:44:56.270Z,5.50
2023-01-18T14:47:29.864Z,5.97
2023-01-18T14:49:58.448Z,6.50
2023-01-18T14:52:31.578Z,6.90
2023-01-18T14:54:59.656Z,9.63
2023-01-18T14:57:27.751Z,6.77
2023-01-18T15:00:08.704Z,6.63
2023-01-18T15:02:39.406Z,6.67
2023-01-18T15:05:11.577Z,6.60
2023-01-18T15:07:40.711Z,6.33
2023-01-18T15:10:11.515Z,7.17
2023-01-18T15:12:40.971Z,8.03
2023-01-18T15:15:25.866Z,6.70
2023-01-18T15:17:57.470Z,7.33
2023-01-18T15:20:26.270Z,6.27
2023-01-18T15:22:55.751Z,8.77
2023-01-18T15:25:27.249Z,8.13
2023-01-18T15:27:59.634Z,5.53
2023-01-18T15:30:32.999Z,8.30
2023-01-18T15:33:02.326Z,6.50
2023-01-18T15:35:31.341Z,5.70
2023-01-18T15:37:59.953Z,5.90
2023-01-18T15:40:30.954Z,6.33
2023-01-18T15:43:05.812Z,6.10
2023-01-18T15:45:38.295Z,5.77
2023-01-18T15:48:09.714Z,6.50
2023-01-18T15:50:43.980Z,5.90
2023-01-18T15:53:19.099Z,7.63
2023-01-18T15:55:50.746Z,6.83
2023-01-18T15:58:27.474Z,7.13
2023-01-18T16:00:59.145Z,7.77
2023-01-18T16:03:29.995Z,7.07
2023-01-18T16:06:11.036Z,7.73
2023-01-18T16:08:57.606Z,7.13
2023-01-18T16:11:34.556Z,8.60
2023-01-18T16:14:07.573Z,7.50
2023-01-18T16:16:39.803Z,9.13
2023-01-18T16:19:16.087Z,9.40
2023-01-18T16:21:47.910Z,8.90
2023-01-18T16:24:19.405Z,9.27
2023-01-18T16:26:47.984Z,7.00
2023-01-18T16:29:16.720Z,8.30
2023-01-18T16:31:48.209Z,8.83
2023-01-18T16:34:26.945Z,7.43
2023-01-18T16:36:55.489Z,8.50
2023-01-18T16:39:24.531Z,7.40
2023-01-18T16:41:57.101Z,6.37
2023-01-18T16:44:26.942Z,7.80
2023-01-18T16:46:56.414Z,6.60
2023-01-18T16:49:24.747Z,6.37
2023-01-18T16:51:53.381Z,7.53
2023-01-18T16:54:21.749Z,6.90
2023-01-18T16:56:50.223Z,8.13
2023-01-18T16:59:21.664Z,8.40
2023-01-18T17:01:51.479Z,7.90
2023-01-18T17:04:21.121Z,8.97
2023-01-18T17:06:49.265Z,7.40
2023-01-18T17:09:23.397Z,9.03
2023-01-18T17:11:51.951Z,9.23
2023-01-18T17:14:21.385Z,9.90
2023-01-18T17:16:50.088Z,9.00
2023-01-18T17:19:20.041Z,8.97
2023-01-18T17:21:51.224Z,10.27
2023-01-18T17:24:21.099Z,10.73
2023-01-18T17:26:49.458Z,8.20
2023-01-18T17:29:21.117Z,8.43
2023-01-18T17:31:53.390Z,9.87
2023-01-18T17:34:28.216Z,11.20
2023-01-18T17:36:59.649Z,8.90
2023-01-18T17:39:42.492Z,9.00
2023-01-18T17:42:22.804Z,9.27
2023-01-18T17:45:02.669Z,9.90
2023-01-18T17:47:31.438Z,9.77
2023-01-18T17:50:00.126Z,10.60
2023-01-18T17:52:29.649Z,9.37
2023-01-18T17:54:57.800Z,11.10
2023-01-18T17:57:25.985Z,8.97
2023-01-18T17:59:55.494Z,8.67
2023-01-18T18:02:24.359Z,9.63
2023-01-18T18:04:53.036Z,9.10
2023-01-18T18:07:21.189Z,12.30
2023-01-18T18:09:51.035Z,10.77
2023-01-18T18:12:19.168Z,13.30
2023-01-18T18:14:47.588Z,10.50
2023-01-18T18:17:15.753Z,11.80
2023-01-18T18:19:43.931Z,11.10
2023-01-18T18:22:12.076Z,12.10
2023-01-18T18:24:40.233Z,12.13
2023-01-18T18:27:09.738Z,12.80
2023-01-18T18:29:37.872Z,11.93
2023-01-18T18:32:07.067Z,13.07
2023-01-18T18:34:36.006Z,13.40
2023-01-18T18:37:06.065Z,13.37
2023-01-18T18:39:34.670Z,13.07
2023-01-18T18:42:03.020Z,13.27
2023-01-18T18:44:32.510Z,16.70
2023-01-18T18:47:01.927Z,12.20
2023-01-18T18:49:31.282Z,12.83
2023-01-18T18:52:00.286Z,13.37
2023-01-18T18:54:28.504Z,14.40
2023-01-18T18:56:56.660Z,13.57
2023-01-18T18:59:24.820Z,12.10
2023-01-18T19:01:56.083Z,14.70
2023-01-18T19:04:24.292Z,13.23
2023-01-18T19:06:52.450Z,13.93
2023-01-18T19:09:20.922Z,13.53
2023-01-18T19:11:55.058Z,16.30
2023-01-18T19:14:25.729Z,14.10
2023-01-18T19:16:55.318Z,13.67
2023-01-18T19:19:25.951Z,13.07
2023-01-18T19:21:54.269Z,12.47
2023-01-18T19:24:22.484Z,14.83
2023-01-18T19:26:50.659Z,13.93
2023-01-18T19:29:18.959Z,14.37
2023-01-18T19:31:47.204Z,15.20
2023-01-18T19:34:17.865Z,14.10
2023-01-18T19:36:46.093Z,13.37
2023-01-18T19:39:22.411Z,15.03
2023-01-18T19:41:52.448Z,12.57
2023-01-18T19:44:20.621Z,13.90
2023-01-18T19:46:48.873Z,12.83
2023-01-18T19:49:20.160Z,12.30
2023-01-18T19:51:48.528Z,13.80
2023-01-18T19:54:16.683Z,13.70
2023-01-18T19:56:45.002Z,13.10
2023-01-18T19:59:14.542Z,13.57
2023-01-18T20:01:43.303Z,13.57
2023-01-18T20:04:13.138Z,14.30
2023-01-18T20:06:44.951Z,16.30
2023-01-18T20:09:20.235Z,17.40
2023-01-18T20:11:50.390Z,15.23
2023-01-18T20:14:19.610Z,17.40
2023-01-18T20:16:48.369Z,17.70
2023-01-18T20:19:17.472Z,16.87
2023-01-18T20:21:47.159Z,18.73
2023-01-18T20:24:16.213Z,19.87
2023-01-18T20:26:44.463Z,19.07
2023-01-18T20:29:13.190Z,20.60
2023-01-18T20:31:44.577Z,17.93
2023-01-18T20:34:16.738Z,15.07
2023-01-18T20:36:46.059Z,15.20
2023-01-18T20:39:16.908Z,16.23
2023-01-18T20:41:45.753Z,15.23
2023-01-18T20:44:13.951Z,18.70
2023-01-18T20:46:42.141Z,24.93
2023-01-18T20:49:10.386Z,15.10
2023-01-18T20:51:40.315Z,15.57
2023-01-18T20:54:08.555Z,13.53
2023-01-18T20:56:38.066Z,14.03
2023-01-18T20:59:06.225Z,15.53
2023-01-18T21:01:34.663Z,15.27
2023-01-18T21:04:05.178Z,16.37
2023-01-18T21:06:33.975Z,14.53
2023-01-18T21:09:02.387Z,16.57
2023-01-18T21:11:31.774Z,14.47
2023-01-18T21:14:01.348Z,14.63
2023-01-18T21:16:29.624Z,14.90
2023-01-18T21:18:59.134Z,15.03
2023-01-18T21:21:31.423Z,18.03
2023-01-18T21:24:00.219Z,15.03
2023-01-18T21:26:28.665Z,14.87
2023-01-18T21:28:57.145Z,18.53
2023-01-18T21:31:27.251Z,14.17
2023-01-18T21:33:55.956Z,15.43
2023-01-18T21:36:24.158Z,11.40
2023-01-18T21:38:52.703Z,10.33
2023-01-18T21:41:38.881Z,12.63
2023-01-18T21:44:24.564Z,12.43
2023-01-18T21:46:54.252Z,18.10
2023-01-18T21:50:03.975Z,14.10
2023-01-18T21:52:48.625Z,12.07
2023-01-18T21:55:17.419Z,22.20
2023-01-18T21:58:05.870Z,9.90
2023-01-18T22:00:36.685Z,8.60
2023-01-18T22:03:06.333Z,8.70
2023-01-18T22:05:33.688Z,9.90
2023-01-18T22:08:02.275Z,11.20
2023-01-18T22:10:30.764Z,10.13
2023-01-18T22:12:58.927Z,11.40
2023-01-18T22:15:27.111Z,15.80
2023-01-18T22:17:55.271Z,15.60
2023-01-18T22:20:24.957Z,15.23
2023-01-18T22:22:54.349Z,18.13
2023-01-18T22:25:22.540Z,20.23
2023-01-18T22:27:50.842Z,19.50
2023-01-18T22:30:19.467Z,17.93
2023-01-18T22:32:47.657Z,17.30
2023-01-18T22:35:16.139Z,11.87
2023-01-18T22:37:45.618Z,10.30
2023-01-18T22:40:13.839Z,9.70
2023-01-18T22:42:42.056Z,12.07
2023-01-18T22:45:10.881Z,11.87
2023-01-18T22:47:39.301Z,11.43
2023-01-18T22:50:08.078Z,12.30
2023-01-18T22:52:36.277Z,12.97
2023-01-18T22:55:06.573Z,11.57
2023-01-18T22:57:34.787Z,10.43
2023-01-18T23:00:03.418Z,9.83
2023-01-18T23:02:33.183Z,10.70
2023-01-18T23:05:01.784Z,11.00
2023-01-18T23:07:30.084Z,10.80
2023-01-18T23:09:58.257Z,8.80
2023-01-18T23:12:27.762Z,9.63
2023-01-18T23:15:13.509Z,8.87
2023-01-18T23:17:43.099Z,9.40
2023-01-18T23:20:14.862Z,8.30
2023-01-18T23:22:44.654Z,7.13
2023-01-18T23:25:12.796Z,8.77
2023-01-18T23:27:42.499Z,7.33
2023-01-18T23:30:12.292Z,7.33
2023-01-18T23:32:40.712Z,5.97
2023-01-18T23:35:09.388Z,6.17
2023-01-18T23:37:37.660Z,6.87
2023-01-18T23:40:25.067Z,5.50
2023-01-18T23:43:13.545Z,5.53
2023-01-18T23:45:59.589Z,5.60
2023-01-18T23:48:45.445Z,6.30
2023-01-18T23:51:31.539Z,5.40
2023-01-18T23:54:15.752Z,6.43
2023-01-18T23:56:44.747Z,7.03
2023-01-18T23:59:14.774Z,7.90
